Portada
METAR-TAF:

METAR-TAF

Aeroports :

Fuzhou, Xina

latitud: 26-05N, longitud: 119-17E, altitud: 85 m

Observació

L'informe es va fer fa 50 minuts, a les 23:00 UTC
Vent 14 kt del Nord/Nord-Est
Temperatura 13°C
Humitat 72%
Pressió 1025 hPa
Visibilitat 10 km o més
Cel cobert a una alçada de 2700 ft

METAR: ZSFZ 262300Z 03007MPS 9999 OVC027 13/08 Q1025 NOSIG

Hora: 07:50 (23:50 UTC)

Pronòstic

L'informe es va fer fa 2 hores i 46 minuts, a les 21:04 UTC
Pronòstic vàlid del 27 a les 00 UTC al 27 a les 24 UTC
Vent 14 kt del Nord/Nord-Est
Visibilitat: 7000 m
Cel ennuvolat a una alçada de 1500 ft

TAF: ZSFZ 262104Z 2700/2724 03007MPS 7000 BKN015 TX14/2706Z TN11/2721Z

Observacions i pronòstics meteorològics de més de 4000 aeroports (METAR i TAF).

Les estacions disponibles són els punts grocs i vermells al mapa.

Posi el ratolí al punt desitjat per veure el nom de l'estació.

Feu clic per veure les observacions i els pronòstics meteorològics.

Per canviar el mapa: feu clic els botons verds amb una creu de color negre per apropar; al botó verd amb un guió per allunyar la imatge; o en les fletxes verdes per a mapes adjacents.


METAR-TAF: